Time;durP1;ratioP1;P1;durP2;ratioP2;P2;SDS_P1;SDS_P2;PMS_P1;PMS_P2;Temp;Humidity;BMP_temperature;BMP_pressure;BME280_temperature;BME280_humidity;BME280_pressure;Samples;Min_cycle;Max_cycle;Signal;HPM_P1;HPM_P2
2022/04/20 00:01:14;;;;;;;11.90;7.68;;;;;;;5.14;66.61;99549.38;4380735;32;33641;-66
2022/04/20 00:03:42;;;;;;;12.40;8.23;;;;;;;4.50;68.69;99548.53;4377091;32;34051;-68
2022/04/20 00:06:10;;;;;;;11.63;8.05;;;;;;;5.08;66.99;99538.69;4377042;32;33930;-64
2022/04/20 00:08:37;;;;;;;11.25;8.65;;;;;;;4.71;68.51;99544.72;4392182;32;34958;-63
2022/04/20 00:11:05;;;;;;;11.20;8.35;;;;;;;4.57;68.85;99545.81;4382537;32;33725;-62
2022/04/20 00:13:32;;;;;;;11.95;8.18;;;;;;;4.81;68.27;99549.59;4376715;32;34672;-68
2022/04/20 00:15:59;;;;;;;12.27;8.30;;;;;;;4.54;69.24;99537.38;4377487;32;34949;-67
2022/04/20 00:18:27;;;;;;;12.25;9.32;;;;;;;5.09;67.90;99548.38;4377186;32;34124;-64
2022/04/20 00:20:55;;;;;;;11.52;8.68;;;;;;;4.98;68.08;99547.22;4384132;32;34259;-66
2022/04/20 00:23:22;;;;;;;10.88;8.07;;;;;;;4.81;68.65;99552.28;4391014;32;34967;-63
2022/04/20 00:25:50;;;;;;;11.88;8.23;;;;;;;5.05;67.83;99547.16;4392172;32;33962;-67
2022/04/20 00:28:17;;;;;;;11.18;7.80;;;;;;;5.26;67.29;99543.31;4392023;32;33755;-64
2022/04/20 00:30:44;;;;;;;11.68;8.25;;;;;;;5.45;66.93;99550.38;4385802;32;33502;-67
2022/04/20 00:33:12;;;;;;;11.70;8.25;;;;;;;5.18;67.63;99543.56;4385106;32;34759;-65
2022/04/20 00:35:41;;;;;;;9.93;7.25;;;;;;;4.92;68.84;99545.41;4391898;32;34316;-66
2022/04/20 00:38:09;;;;;;;11.77;7.75;;;;;;;5.30;68.11;99541.81;4392131;32;34665;-66
2022/04/20 00:40:37;;;;;;;10.48;7.68;;;;;;;5.57;66.76;99536.19;4392012;32;33457;-68
2022/04/20 00:43:05;;;;;;;10.75;8.07;;;;;;;5.44;67.48;99542.53;4369495;32;33820;-65
2022/04/20 00:45:33;;;;;;;10.45;7.95;;;;;;;5.70;66.57;99536.06;4387994;32;35018;-66
2022/04/20 00:48:03;;;;;;;10.25;7.55;;;;;;;5.70;65.93;99538.75;4376810;32;34744;-66
2022/04/20 00:50:30;;;;;;;11.07;8.00;;;;;;;5.48;66.02;99535.66;4376566;32;33518;-64
2022/04/20 00:52:58;;;;;;;10.48;8.02;;;;;;;5.28;66.99;99541.22;4387447;32;33887;-62
2022/04/20 00:55:29;;;;;;;11.52;8.40;;;;;;;5.29;66.50;99541.00;4385034;32;34188;-63
2022/04/20 00:57:56;;;;;;;11.80;8.10;;;;;;;5.65;65.21;99549.38;4391918;32;34226;-66
2022/04/20 01:00:27;;;;;;;9.57;7.22;;;;;;;5.42;66.07;99550.00;4392262;32;33437;-64
2022/04/20 01:02:55;;;;;;;11.02;8.00;;;;;;;5.10;66.82;99550.06;4378330;32;33744;-66
2022/04/20 01:05:24;;;;;;;10.50;7.72;;;;;;;4.90;67.36;99545.63;4389133;32;34402;-65
2022/04/20 01:07:55;;;;;;;10.50;7.78;;;;;;;4.90;67.51;99551.00;4387125;32;33519;-64
2022/04/20 01:10:23;;;;;;;12.75;8.23;;;;;;;5.12;66.74;99554.16;4378284;32;33512;-63
2022/04/20 01:12:51;;;;;;;10.68;7.18;;;;;;;5.28;66.21;99554.66;4390592;32;33443;-67
2022/04/20 01:15:18;;;;;;;10.07;7.35;;;;;;;5.25;66.21;99552.44;4392060;32;34497;-66
2022/04/20 01:17:47;;;;;;;10.80;7.55;;;;;;;5.49;65.81;99556.16;4368829;32;34501;-65
2022/04/20 01:20:17;;;;;;;10.02;7.62;;;;;;;5.40;65.44;99554.75;4377522;32;33593;-68
2022/04/20 01:22:46;;;;;;;10.05;7.32;;;;;;;5.20;65.45;99560.31;4375739;32;34672;-65
2022/04/20 01:25:14;;;;;;;11.75;7.22;;;;;;;5.11;65.54;99557.88;4376392;32;33934;-65
2022/04/20 01:27:44;;;;;;;9.75;7.30;;;;;;;5.23;65.55;99557.19;4377123;32;34074;-66
2022/04/20 01:30:12;;;;;;;10.82;7.75;;;;;;;4.61;67.08;99562.34;4376842;32;33201;-67
2022/04/20 01:32:40;;;;;;;11.57;7.80;;;;;;;4.92;66.13;99559.69;4387482;32;34864;-67
2022/04/20 01:35:08;;;;;;;11.90;7.40;;;;;;;5.08;66.13;99565.56;4390829;32;33949;-66
2022/04/20 01:37:37;;;;;;;10.45;7.62;;;;;;;4.52;67.44;99561.75;4390042;32;34504;-63
2022/04/20 01:40:06;;;;;;;10.20;7.47;;;;;;;4.93;66.15;99568.56;4391057;32;34606;-62
2022/04/20 01:42:34;;;;;;;10.68;7.87;;;;;;;4.24;68.30;99567.44;4389736;32;33688;-66
2022/04/20 01:45:03;;;;;;;11.52;8.23;;;;;;;4.55;67.18;99564.00;4376732;32;34192;-63
2022/04/20 01:47:31;;;;;;;12.60;7.85;;;;;;;4.40;67.78;99560.75;4376518;32;33828;-62
2022/04/20 01:49:59;;;;;;;10.43;7.30;;;;;;;4.70;66.88;99561.03;4376313;32;33471;-68
2022/04/20 01:52:27;;;;;;;9.88;7.07;;;;;;;4.75;66.59;99568.44;4375325;32;34455;-63
2022/04/20 01:54:55;;;;;;;9.68;7.37;;;;;;;4.61;66.70;99563.16;4390723;32;34709;-63
2022/04/20 01:57:22;;;;;;;9.95;7.82;;;;;;;4.65;66.71;99564.38;4391709;32;34077;-66
2022/04/20 01:59:50;;;;;;;10.20;7.70;;;;;;;4.14;68.05;99573.25;4388077;32;33193;-63
2022/04/20 02:05:08;;;;;;;11.77;8.05;;;;;;;4.33;68.37;99563.47;4381096;32;34239;-65
2022/04/20 02:07:36;;;;;;;9.90;7.47;;;;;;;4.87;66.03;99564.03;4391275;32;32629;-65
2022/04/20 02:10:06;;;;;;;10.85;7.95;;;;;;;4.70;66.57;99556.47;4391398;32;33416;-64
2022/04/20 02:12:34;;;;;;;11.25;8.20;;;;;;;4.79;66.48;99556.22;4389858;32;33818;-62
2022/04/20 02:15:03;;;;;;;11.50;7.90;;;;;;;4.42;67.48;99559.50;4391501;32;34115;-65
2022/04/20 02:17:34;;;;;;;10.95;8.02;;;;;;;4.40;67.56;99558.91;4379142;32;34622;-69
2022/04/20 02:20:06;;;;;;;10.30;7.50;;;;;;;4.62;67.10;99566.66;4376118;32;33460;-62
2022/04/20 02:22:33;;;;;;;10.45;8.00;;;;;;;4.82;66.31;99559.31;4374708;32;35091;-66
2022/04/20 02:25:00;;;;;;;10.52;7.22;;;;;;;4.69;66.41;99557.53;4376032;32;33992;-66
2022/04/20 02:27:28;;;;;;;11.60;7.72;;;;;;;4.43;67.09;99554.97;4389302;32;34204;-66
2022/04/20 02:29:56;;;;;;;11.05;7.53;;;;;;;4.74;66.70;99556.88;4381216;32;34414;-64
2022/04/20 02:32:23;;;;;;;11.55;7.53;;;;;;;4.92;65.81;99557.00;4374844;32;34039;-62
2022/04/20 02:34:51;;;;;;;12.07;8.02;;;;;;;4.34;67.80;99559.75;4375518;32;35044;-66
2022/04/20 02:37:18;;;;;;;10.82;7.70;;;;;;;4.07;68.93;99564.41;4375756;32;33798;-67
2022/04/20 02:39:46;;;;;;;11.57;7.93;;;;;;;4.58;67.87;99558.22;4388355;32;33726;-63
2022/04/20 02:42:13;;;;;;;10.25;7.80;;;;;;;4.71;67.36;99557.31;4389655;32;33928;-66
2022/04/20 02:44:42;;;;;;;10.30;7.87;;;;;;;4.78;67.09;99551.91;4367264;32;34287;-67
2022/04/20 02:47:09;;;;;;;10.60;7.22;;;;;;;4.81;67.10;99554.16;4387521;32;33823;-64
2022/04/20 02:49:37;;;;;;;11.05;7.30;;;;;;;4.40;68.27;99558.91;4377713;32;33557;-63
2022/04/20 02:52:06;;;;;;;12.50;8.38;;;;;;;4.95;66.81;99558.41;4391786;32;34703;-63
2022/04/20 02:54:33;;;;;;;11.48;7.90;;;;;;;4.58;67.62;99558.22;4392342;32;34859;-64
2022/04/20 02:57:01;;;;;;;11.95;8.25;;;;;;;4.64;67.76;99561.88;4393220;32;34755;-63
2022/04/20 02:59:29;;;;;;;10.98;8.15;;;;;;;4.83;67.74;99552.88;4392233;32;34090;-66
2022/04/20 03:01:57;;;;;;;12.63;7.90;;;;;;;4.56;68.00;99562.12;4387695;32;33619;-65
2022/04/20 03:04:24;;;;;;;12.10;8.27;;;;;;;5.05;66.59;99561.44;4377643;32;34088;-64
2022/04/20 03:06:52;;;;;;;13.05;7.75;;;;;;;5.05;66.51;99566.00;4377680;32;34601;-68
2022/04/20 03:09:20;;;;;;;10.60;8.32;;;;;;;4.99;66.81;99562.31;4377716;32;33554;-66
2022/04/20 03:11:48;;;;;;;10.60;8.10;;;;;;;5.08;66.65;99569.09;4376739;32;34882;-63
2022/04/20 03:14:18;;;;;;;10.65;7.85;;;;;;;4.54;68.09;99562.38;4386287;32;35604;-68
2022/04/20 03:16:47;;;;;;;10.07;7.50;;;;;;;4.60;68.04;99571.41;4392491;32;34381;-64
2022/04/20 03:19:14;;;;;;;10.75;7.72;;;;;;;4.42;68.50;99570.25;4392724;32;33340;-63
2022/04/20 03:21:43;;;;;;;10.90;7.60;;;;;;;5.00;66.44;99560.44;4392066;32;33911;-62
2022/04/20 03:24:10;;;;;;;12.02;8.02;;;;;;;5.00;66.14;99566.66;4382570;32;34289;-61
2022/04/20 03:26:39;;;;;;;11.45;8.38;;;;;;;4.72;66.97;99567.03;4377747;32;34339;-63
2022/04/20 03:29:12;;;;;;;11.95;8.63;;;;;;;4.20;68.68;99572.41;4377597;32;33814;-60
2022/04/20 03:31:40;;;;;;;10.15;7.95;;;;;;;4.60;67.35;99572.25;4376721;32;33558;-68
2022/04/20 03:34:07;;;;;;;12.23;8.70;;;;;;;4.66;67.15;99579.44;4388351;32;34317;-61
2022/04/20 03:36:35;;;;;;;10.48;7.47;;;;;;;4.63;67.28;99577.19;4390048;32;33701;-62
2022/04/20 03:39:03;;;;;;;11.40;7.85;;;;;;;4.30;68.32;99580.84;4392491;32;33522;-65
2022/04/20 03:41:30;;;;;;;11.30;7.70;;;;;;;4.35;68.27;99582.06;4391445;32;33935;-61
2022/04/20 03:43:58;;;;;;;11.30;7.53;;;;;;;4.64;67.50;99578.84;4390803;32;34158;-61
2022/04/20 03:46:26;;;;;;;9.77;7.15;;;;;;;4.59;67.67;99586.72;4388619;32;33644;-62
2022/04/20 03:48:53;;;;;;;10.73;7.85;;;;;;;4.62;67.61;99582.78;4382559;32;33580;-68
2022/04/20 03:51:20;;;;;;;12.32;8.82;;;;;;;4.94;66.69;99584.47;4392768;32;33958;-64
2022/04/20 03:53:49;;;;;;;10.93;8.02;;;;;;;4.88;66.61;99589.87;4391197;32;33937;-61
2022/04/20 03:56:16;;;;;;;11.43;8.35;;;;;;;4.58;67.89;99585.09;4391151;32;34216;-61
2022/04/20 03:58:44;;;;;;;11.60;9.10;;;;;;;4.59;67.75;99589.41;4391152;32;33647;-63
2022/04/20 04:01:12;;;;;;;12.27;9.02;;;;;;;4.28;69.52;99592.84;4390528;32;33615;-63
2022/04/20 04:03:40;;;;;;;12.73;8.95;;;;;;;4.76;68.00;99591.63;4392260;32;34995;-62
2022/04/20 04:06:08;;;;;;;12.88;9.07;;;;;;;4.72;67.90;99596.59;4391848;32;33940;-62
2022/04/20 04:08:36;;;;;;;13.27;9.48;;;;;;;4.97;68.21;99591.28;4392372;32;34248;-63
2022/04/20 04:11:04;;;;;;;15.93;10.25;;;;;;;4.80;68.66;99587.47;4392174;32;34827;-69
2022/04/20 04:13:31;;;;;;;12.90;9.48;;;;;;;4.86;68.11;99598.19;4390072;32;34268;-62
2022/04/20 04:15:59;;;;;;;12.52;9.50;;;;;;;5.40;67.74;99592.44;4391918;32;34733;-67
2022/04/20 04:18:27;;;;;;;14.70;10.15;;;;;;;6.02;64.86;99595.22;4392166;32;33431;-66
2022/04/20 04:20:55;;;;;;;11.98;9.02;;;;;;;6.18;63.15;99605.44;4392170;32;33673;-68
2022/04/20 04:23:22;;;;;;;12.57;8.27;;;;;;;6.59;62.95;99595.84;4391892;32;34340;-66
2022/04/20 04:25:58;;;;;;;10.93;8.05;;;;;;;7.04;61.48;99603.56;4390907;32;34187;-68
2022/04/20 04:28:27;;;;;;;11.02;7.72;;;;;;;7.16;60.44;99607.09;4391810;32;33479;-63
2022/04/20 04:30:55;;;;;;;9.27;7.10;;;;;;;7.84;59.57;99601.47;4393110;32;33911;-64
2022/04/20 04:33:23;;;;;;;9.32;7.10;;;;;;;8.57;57.23;99611.78;4393651;32;34236;-63
2022/04/20 04:35:51;;;;;;;9.13;6.60;;;;;;;8.97;54.73;99608.22;4393421;32;33736;-63
2022/04/20 04:38:18;;;;;;;11.12;7.22;;;;;;;9.61;52.87;99618.00;4393495;32;34193;-64
2022/04/20 04:40:46;;;;;;;11.60;7.50;;;;;;;9.51;51.75;99626.78;4386685;32;34775;-74
2022/04/20 04:43:13;;;;;;;9.70;7.12;;;;;;;9.48;51.70;99621.03;4378151;32;33980;-66
2022/04/20 04:48:38;;;;;;;9.38;6.78;;;;;;;9.61;51.49;99620.69;4391554;32;33396;-62
2022/04/20 04:51:09;;;;;;;10.40;7.40;;;;;;;9.69;51.52;99627.63;4377771;32;34703;-63
2022/04/20 04:53:38;;;;;;;9.82;7.07;;;;;;;9.84;51.28;99620.53;4376790;32;35064;-61
2022/04/20 04:56:12;;;;;;;10.10;7.35;;;;;;;9.67;52.32;99611.59;4376685;32;34595;-63
2022/04/20 04:58:39;;;;;;;8.98;6.85;;;;;;;9.44;52.19;99629.66;4376906;32;33483;-63
2022/04/20 05:01:07;;;;;;;8.70;6.75;;;;;;;8.99;53.90;99637.75;4376646;32;33653;-64
2022/04/20 05:03:35;;;;;;;10.43;6.93;;;;;;;9.33;52.12;99632.41;4376973;32;34346;-64
2022/04/20 05:06:02;;;;;;;9.32;7.20;;;;;;;8.27;54.94;99630.84;4376839;32;34140;-63
2022/04/20 05:08:33;;;;;;;8.38;6.75;;;;;;;8.55;55.00;99627.41;4376764;32;32164;-64
2022/04/20 05:11:01;;;;;;;10.10;7.32;;;;;;;8.07;56.55;99630.38;4375989;32;33880;-63
2022/04/20 05:13:29;;;;;;;10.02;7.53;;;;;;;7.64;58.05;99626.91;4376531;32;34168;-64
2022/04/20 05:15:56;;;;;;;9.45;7.32;;;;;;;8.97;55.34;99640.69;4376998;32;34064;-64
2022/04/20 05:18:26;;;;;;;9.45;7.15;;;;;;;9.74;52.54;99628.53;4376684;32;33966;-64
2022/04/20 05:20:53;;;;;;;10.93;7.10;;;;;;;10.06;52.12;99630.63;4383670;32;33971;-64
2022/04/20 05:23:21;;;;;;;8.98;6.37;;;;;;;10.65;50.54;99635.56;4382188;32;35011;-66
2022/04/20 05:25:50;;;;;;;8.65;6.55;;;;;;;10.70;50.27;99638.31;4391495;32;34434;-64
2022/04/20 05:28:18;;;;;;;9.35;6.78;;;;;;;11.50;48.54;99638.66;4389381;32;33901;-64
2022/04/20 05:30:46;;;;;;;8.57;6.90;;;;;;;11.25;48.26;99642.75;4391194;32;34843;-62
2022/04/20 05:33:15;;;;;;;8.65;6.10;;;;;;;11.70;47.55;99636.13;4390723;32;33800;-62
2022/04/20 05:35:43;;;;;;;7.53;6.50;;;;;;;11.76;46.79;99642.41;4390094;32;33992;-67
2022/04/20 05:43:44;;;;;;;8.77;6.62;;;;;;;10.91;49.58;99643.97;4376152;32;34926;-67
2022/04/20 05:46:16;;;;;;;8.60;6.37;;;;;;;10.69;50.82;99644.84;4376388;32;34677;-62
2022/04/20 05:48:44;;;;;;;9.40;6.87;;;;;;;11.02;50.63;99637.63;4388273;32;33442;-68
2022/04/20 05:51:13;;;;;;;9.52;6.60;;;;;;;11.06;49.47;99636.84;4391364;32;34509;-63
2022/04/20 05:53:43;;;;;;;10.23;6.68;;;;;;;11.40;49.85;99635.81;4390841;32;35206;-65
2022/04/20 05:56:10;;;;;;;9.50;6.95;;;;;;;11.70;49.46;99641.56;4390208;32;34176;-67
2022/04/20 05:58:39;;;;;;;8.68;6.30;;;;;;;11.96;49.50;99644.50;4391106;32;33634;-63
2022/04/20 06:01:07;;;;;;;7.78;5.97;;;;;;;12.41;49.63;99640.44;4390843;32;33623;-63
2022/04/20 06:03:36;;;;;;;8.15;6.12;;;;;;;12.95;47.57;99647.50;4391104;32;34189;-64
2022/04/20 06:06:04;;;;;;;7.35;5.57;;;;;;;13.60;44.92;99639.75;4391039;32;34007;-63
2022/04/20 06:08:33;;;;;;;7.85;5.70;;;;;;;14.06;44.05;99634.31;4388403;32;33475;-67
2022/04/20 06:11:01;;;;;;;7.55;5.32;;;;;;;13.79;45.44;99636.50;4390480;32;34671;-66
2022/04/20 06:13:29;;;;;;;6.25;5.10;;;;;;;14.14;43.75;99632.94;4390748;32;34185;-66
2022/04/20 06:15:57;;;;;;;6.85;5.32;;;;;;;14.20;44.36;99626.38;4390835;32;33780;-67
2022/04/20 06:18:26;;;;;;;7.57;5.37;;;;;;;14.87;42.23;99632.47;4391032;32;33353;-69
2022/04/20 06:20:55;;;;;;;6.03;5.03;;;;;;;15.77;40.06;99633.31;4390365;32;34000;-67
2022/04/20 06:23:23;;;;;;;7.28;5.43;;;;;;;15.92;40.47;99627.72;4392812;32;34929;-68
2022/04/20 06:25:55;;;;;;;7.03;4.45;;;;;;;15.96;41.08;99636.97;4392645;32;33914;-68
2022/04/20 06:28:26;;;;;;;6.25;4.43;;;;;;;16.78;39.31;99635.28;4379311;32;33581;-69
2022/04/20 06:30:55;;;;;;;6.55;4.75;;;;;;;16.92;38.18;99633.50;4378719;32;34059;-67
2022/04/20 06:33:23;;;;;;;6.07;4.53;;;;;;;17.63;37.60;99630.84;4379289;32;34261;-68
2022/04/20 06:35:53;;;;;;;5.75;4.35;;;;;;;17.04;35.33;99632.25;4393002;32;32453;-68
2022/04/20 06:38:22;;;;;;;5.28;4.10;;;;;;;17.83;36.52;99632.47;4379469;32;33105;-68
2022/04/20 06:40:50;;;;;;;6.43;4.40;;;;;;;18.38;34.54;99629.03;4392048;32;33847;-67
2022/04/20 06:43:18;;;;;;;5.68;4.40;;;;;;;18.84;33.50;99626.22;4392834;32;35083;-67
2022/04/20 06:45:45;;;;;;;6.32;4.62;;;;;;;18.28;33.70;99621.00;4392358;32;34415;-66
2022/04/20 06:48:13;;;;;;;5.53;4.53;;;;;;;19.13;33.67;99621.50;4392405;32;33762;-66
2022/04/20 06:50:41;;;;;;;7.00;4.35;;;;;;;17.59;33.01;99616.09;4392887;32;33824;-68
2022/04/20 06:58:48;;;;;;;5.25;4.15;;;;;;;18.47;33.79;99609.94;4392510;32;34236;-66
2022/04/20 07:01:21;;;;;;;5.12;4.30;;;;;;;18.41;34.49;99599.03;4392350;32;34641;-67
2022/04/20 07:03:49;;;;;;;5.20;4.28;;;;;;;18.54;34.03;99602.09;4392587;32;34201;-66
2022/04/20 07:06:18;;;;;;;4.82;3.85;;;;;;;18.83;34.36;99605.37;4379264;32;34534;-67
2022/04/20 07:08:48;;;;;;;5.10;4.18;;;;;;;18.75;33.40;99608.00;4392387;32;33608;-67
2022/04/20 07:11:16;;;;;;;4.97;3.40;;;;;;;17.02;34.56;99611.44;4392237;32;33974;-66
2022/04/20 07:13:46;;;;;;;6.12;3.80;;;;;;;18.61;30.62;99610.72;4378780;32;35170;-66
2022/04/20 07:16:14;;;;;;;5.78;4.05;;;;;;;18.34;31.11;99608.81;4392046;32;33798;-68
2022/04/20 07:18:42;;;;;;;5.35;3.55;;;;;;;17.84;34.86;99609.44;4392755;32;33241;-69
2022/04/20 07:21:12;;;;;;;5.22;3.90;;;;;;;18.33;31.32;99598.94;4392706;32;33499;-67
2022/04/20 07:23:39;;;;;;;5.93;4.03;;;;;;;17.73;33.31;99602.44;4392239;32;33717;-68
2022/04/20 07:26:08;;;;;;;5.05;4.10;;;;;;;17.53;31.96;99611.81;4392625;32;33708;-69
2022/04/20 07:28:36;;;;;;;5.37;4.05;;;;;;;16.78;34.60;99606.00;4392726;32;33460;-70
2022/04/20 07:31:04;;;;;;;7.35;4.55;;;;;;;17.19;33.46;99610.09;4392603;32;34141;-68
2022/04/20 07:33:35;;;;;;;6.22;4.55;;;;;;;16.86;34.67;99603.72;4392379;32;32855;-68
2022/04/20 07:36:02;;;;;;;6.20;4.70;;;;;;;17.45;32.54;99599.59;4392340;32;33910;-70
2022/04/20 07:38:30;;;;;;;6.05;4.30;;;;;;;17.09;34.83;99613.81;4392137;32;34467;-68
2022/04/20 07:41:05;;;;;;;5.95;4.15;;;;;;;16.64;36.25;99609.72;4392496;32;33290;-67
2022/04/20 07:43:33;;;;;;;7.18;4.93;;;;;;;16.86;36.58;99598.25;4392575;32;34149;-69
2022/04/20 07:46:01;;;;;;;5.28;4.05;;;;;;;17.31;33.57;99606.94;4392506;32;34640;-69
2022/04/20 07:48:29;;;;;;;5.20;4.03;;;;;;;17.85;33.10;99605.56;4392288;32;33961;-68
2022/04/20 07:50:57;;;;;;;5.68;4.40;;;;;;;16.42;34.64;99602.03;4392544;32;33598;-68
2022/04/20 07:53:25;;;;;;;5.53;4.35;;;;;;;17.43;33.27;99610.06;4392066;32;34175;-68
2022/04/20 07:55:53;;;;;;;5.95;4.28;;;;;;;17.60;34.89;99607.59;4392500;32;34686;-69
2022/04/20 07:58:21;;;;;;;5.32;3.87;;;;;;;17.70;33.23;99605.78;4380269;32;34252;-68
2022/04/20 08:00:53;;;;;;;4.70;3.72;;;;;;;16.65;34.20;99612.19;4393497;32;34044;-69
2022/04/20 08:03:24;;;;;;;4.85;3.67;;;;;;;17.71;33.97;99608.25;4391427;32;34293;-68
2022/04/20 08:05:54;;;;;;;5.57;4.40;;;;;;;17.77;32.94;99603.47;4392310;32;34734;-68
2022/04/20 08:08:23;;;;;;;5.22;4.15;;;;;;;17.52;33.52;99608.25;4393242;32;33434;-68
2022/04/20 08:10:52;;;;;;;5.97;4.55;;;;;;;16.26;36.18;99604.13;4393558;32;34044;-67
2022/04/20 08:16:06;;;;;;;6.87;4.47;;;;;;;16.98;34.31;99593.16;4393211;32;33979;-66
2022/04/20 08:18:34;;;;;;;6.10;4.35;;;;;;;17.51;33.73;99592.91;4393018;32;33557;-68
2022/04/20 09:09:29;;;;;;;5.82;3.90;;;;;;;16.43;33.02;99571.63;4628645;27;20098;-68
2022/04/20 09:11:59;;;;;;;4.87;3.65;;;;;;;17.20;32.99;99568.69;4389003;32;34309;-66
2022/04/20 09:14:30;;;;;;;5.30;3.70;;;;;;;16.53;34.19;99576.97;4392940;32;33905;-70
2022/04/20 09:17:01;;;;;;;5.15;3.72;;;;;;;15.61;31.82;99566.13;4393022;32;34041;-70
2022/04/20 09:19:29;;;;;;;5.32;4.15;;;;;;;15.46;33.32;99570.59;4392849;32;33703;-67
2022/04/20 09:21:56;;;;;;;5.18;3.75;;;;;;;14.13;35.83;99569.38;4392855;32;34226;-68
2022/04/20 09:24:24;;;;;;;5.97;4.35;;;;;;;15.74;33.91;99568.22;4392895;32;35017;-67
2022/04/20 09:26:56;;;;;;;6.00;4.50;;;;;;;14.60;36.87;99561.03;4392801;32;34287;-70
2022/04/20 09:29:24;;;;;;;5.55;4.15;;;;;;;14.46;37.92;99555.34;4379304;32;34464;-70
2022/04/20 09:31:53;;;;;;;7.22;4.03;;;;;;;13.63;34.94;99556.59;4379146;32;34855;-71
2022/04/20 09:34:35;;;;;;;7.45;5.18;;;;;;;13.73;35.32;99556.59;4392629;32;34163;-71
2022/04/20 09:37:12;;;;;;;6.37;4.25;;;;;;;15.39;35.49;99554.53;4379506;32;33849;-70
2022/04/20 09:39:45;;;;;;;6.47;4.65;;;;;;;14.02;37.16;99543.22;4392752;32;33467;-71
2022/04/20 09:42:13;;;;;;;5.20;4.10;;;;;;;14.90;38.00;99551.87;4379236;32;34903;-71
2022/04/20 09:44:52;;;;;;;6.40;4.35;;;;;;;14.26;35.93;99540.69;4366572;32;35092;-70
2022/04/20 09:50:11;;;;;;;5.60;3.97;;;;;;;13.91;36.67;99552.50;4392634;32;34308;-70
2022/04/20 09:52:40;;;;;;;5.65;4.37;;;;;;;13.04;35.45;99545.09;4378896;32;34662;-71
2022/04/20 09:55:11;;;;;;;6.20;4.72;;;;;;;13.83;36.60;99547.62;4392171;32;35095;-70
2022/04/20 09:57:39;;;;;;;6.25;4.62;;;;;;;14.44;36.34;99547.44;4393577;32;34665;-70
2022/04/20 10:00:14;;;;;;;7.75;4.75;;;;;;;14.52;36.75;99554.22;4394434;32;34403;-70
2022/04/20 10:02:48;;;;;;;6.90;4.70;;;;;;;13.76;36.55;99542.44;4381564;32;33972;-70
2022/04/20 10:05:17;;;;;;;6.22;4.80;;;;;;;15.06;36.90;99538.94;4380643;32;34983;-72
2022/04/20 10:07:58;;;;;;;6.55;4.62;;;;;;;15.08;33.98;99543.03;4381085;32;33909;-71
2022/04/20 10:10:31;;;;;;;6.37;4.53;;;;;;;15.42;33.73;99550.44;4381348;32;34097;-70
2022/04/20 10:13:00;;;;;;;5.75;4.12;;;;;;;14.70;34.98;99550.87;4394135;32;34121;-71
2022/04/20 10:18:19;;;;;;;5.85;3.85;;;;;;;15.18;34.68;99550.31;4393998;32;34044;-70
2022/04/20 10:20:52;;;;;;;6.10;4.40;;;;;;;15.76;32.98;99544.94;4380615;32;34495;-71
2022/04/20 10:23:21;;;;;;;5.82;3.83;;;;;;;16.02;34.25;99541.97;4380684;32;34244;-71
2022/04/20 10:25:51;;;;;;;4.28;3.20;;;;;;;16.62;32.54;99547.81;4388615;32;33829;-70
2022/04/20 10:28:36;;;;;;;6.68;3.67;;;;;;;15.86;30.32;99541.31;4355992;32;33747;-70
2022/04/20 10:31:47;;;;;;;4.93;3.80;;;;;;;15.70;30.83;99537.06;4364371;32;34216;-69
2022/04/20 10:34:16;;;;;;;5.37;4.40;;;;;;;15.56;32.92;99537.72;4364165;32;34521;-70
2022/04/20 10:37:00;;;;;;;6.47;3.97;;;;;;;15.28;31.70;99541.25;4364322;32;34971;-67
2022/04/20 10:39:36;;;;;;;5.97;3.97;;;;;;;15.34;31.23;99535.44;4364461;32;34577;-70
2022/04/20 10:42:11;;;;;;;5.82;3.85;;;;;;;15.69;32.00;99529.97;4364326;32;33109;-71
2022/04/20 10:45:00;;;;;;;6.77;4.33;;;;;;;16.66;32.93;99539.84;4377426;32;34986;-68
2022/04/20 10:47:42;;;;;;;3.85;2.90;;;;;;;16.08;28.50;99529.84;4377625;32;33907;-68
2022/04/20 10:50:16;;;;;;;8.93;6.25;;;;;;;16.13;30.02;99538.03;4364466;32;34681;-69
2022/04/20 10:53:04;;;;;;;14.13;6.85;;;;;;;15.51;34.30;99537.78;4377512;32;33123;-69
2022/04/20 10:55:35;;;;;;;7.15;4.93;;;;;;;15.88;33.58;99521.87;4377818;32;34510;-69
2022/04/20 10:58:04;;;;;;;6.15;4.70;;;;;;;16.24;32.95;99530.50;4377168;32;34244;-70
2022/04/20 11:00:38;;;;;;;9.65;4.25;;;;;;;14.92;33.99;99522.34;4377615;32;33789;-68
2022/04/20 11:03:09;;;;;;;5.35;4.07;;;;;;;15.53;34.74;99529.28;4377513;32;33511;-68
2022/04/20 11:05:55;;;;;;;6.10;4.30;;;;;;;16.30;30.54;99523.03;4377556;32;33729;-68
2022/04/20 11:08:24;;;;;;;5.30;3.65;;;;;;;15.90;31.89;99515.00;4377020;32;34101;-70
2022/04/20 11:19:58;;;;;;;6.37;4.55;;;;;;;17.10;32.18;99513.22;4377758;32;34901;-68
2022/04/20 11:22:26;;;;;;;5.28;4.00;;;;;;;16.44;30.31;99506.72;4377093;32;33603;-69
2022/04/20 11:25:02;;;;;;;6.30;4.00;;;;;;;16.97;30.63;99515.56;4364093;32;34304;-69
2022/04/20 11:27:34;;;;;;;5.18;3.53;;;;;;;16.07;28.91;99516.44;4375202;32;33450;-66
2022/04/20 11:30:06;;;;;;;5.75;4.00;;;;;;;16.88;29.76;99517.38;4363931;32;35231;-64
2022/04/20 11:32:36;;;;;;;5.53;4.10;;;;;;;15.93;30.21;99500.72;4377271;32;33958;-67
2022/04/20 11:35:14;;;;;;;4.90;3.72;;;;;;;16.64;28.64;99495.50;4377459;32;34343;-64
2022/04/20 11:37:56;;;;;;;5.30;3.92;;;;;;;16.10;29.47;99494.00;4377166;32;34092;-69
2022/04/20 11:40:24;;;;;;;5.90;4.10;;;;;;;15.81;29.52;99492.13;4377178;32;34976;-69
2022/04/20 11:43:04;;;;;;;5.55;4.00;;;;;;;16.84;31.05;99507.31;4377049;32;34276;-69
2022/04/20 11:45:53;;;;;;;5.37;3.90;;;;;;;16.92;29.61;99507.44;4377245;32;33843;-69
2022/04/20 11:48:21;;;;;;;5.40;4.20;;;;;;;16.89;30.90;99501.72;4377208;32;34827;-63
2022/04/20 11:50:59;;;;;;;5.28;3.80;;;;;;;17.33;26.98;99495.84;4377080;32;34199;-67
2022/04/20 11:53:35;;;;;;;5.85;4.20;;;;;;;17.67;27.50;99491.97;4377188;32;34763;-68
2022/04/20 11:56:04;;;;;;;7.15;4.80;;;;;;;16.71;30.83;99506.88;4376841;32;34266;-66
2022/04/20 11:58:31;;;;;;;7.40;5.12;;;;;;;15.35;30.10;99492.53;4377141;32;34814;-67
2022/04/20 12:01:08;;;;;;;6.70;4.65;;;;;;;15.35;30.64;99482.41;4377205;32;34222;-67
2022/04/20 12:03:39;;;;;;;7.78;5.60;;;;;;;15.41;30.30;99499.59;4376888;32;34982;-67
2022/04/20 12:06:08;;;;;;;6.43;4.97;;;;;;;15.41;29.83;99502.31;4363942;32;33710;-67
2022/04/20 12:08:40;;;;;;;6.10;4.57;;;;;;;16.25;30.68;99496.53;4376824;32;33974;-66
2022/04/20 12:11:10;;;;;;;9.50;5.10;;;;;;;16.16;30.21;99490.09;4376738;32;34193;-66
2022/04/20 12:13:39;;;;;;;7.22;4.70;;;;;;;16.33;31.43;99486.88;4376870;32;33985;-67
2022/04/20 12:16:09;;;;;;;6.32;4.82;;;;;;;17.20;29.39;99493.88;4377002;32;34342;-66
2022/04/20 12:18:45;;;;;;;6.00;4.62;;;;;;;17.51;29.33;99494.16;4377302;32;34048;-68
2022/04/20 12:21:42;;;;;;;6.95;4.70;;;;;;;15.97;30.21;99490.03;4362966;32;35099;-67
2022/04/20 12:24:26;;;;;;;6.18;4.80;;;;;;;16.25;29.21;99488.34;4377347;32;33984;-68
2022/04/20 12:26:56;;;;;;;7.82;5.28;;;;;;;15.76;28.66;99482.03;4376719;32;33931;-67
2022/04/20 12:29:26;;;;;;;7.37;5.10;;;;;;;15.61;31.29;99476.69;4376946;32;34113;-68
2022/04/20 12:31:54;;;;;;;7.75;4.97;;;;;;;16.58;30.43;99475.56;4376774;32;34292;-67
2022/04/20 12:34:25;;;;;;;6.57;4.70;;;;;;;16.31;30.89;99469.94;4363486;32;34024;-67
2022/04/20 12:37:06;;;;;;;6.43;4.75;;;;;;;17.41;29.99;99475.16;4377107;32;33328;-68
2022/04/20 12:39:35;;;;;;;6.97;4.93;;;;;;;17.53;29.30;99471.91;4377002;32;34108;-67
2022/04/20 12:42:08;;;;;;;7.07;4.82;;;;;;;17.93;26.39;99464.06;4376524;32;34953;-67
2022/04/20 12:44:40;;;;;;;6.25;4.65;;;;;;;18.39;27.92;99471.34;4363338;32;33712;-67
2022/04/20 12:47:07;;;;;;;6.90;5.05;;;;;;;18.18;26.98;99465.47;4363407;32;33292;-67
2022/04/20 12:49:35;;;;;;;5.60;4.30;;;;;;;18.41;25.34;99469.94;4377036;32;34228;-67
2022/04/20 12:52:08;;;;;;;5.80;4.20;;;;;;;18.87;24.13;99468.09;4376682;32;34946;-67
2022/04/20 12:54:36;;;;;;;5.87;4.28;;;;;;;17.95;26.84;99470.06;4376602;32;34276;-67
2022/04/20 13:03:06;;;;;;;6.20;4.60;;;;;;;17.04;26.95;99471.38;4376774;32;33824;-67
2022/04/20 13:05:36;;;;;;;6.18;4.47;;;;;;;16.96;28.09;99463.81;4376605;32;33989;-67
2022/04/20 13:08:05;;;;;;;6.57;4.70;;;;;;;16.74;29.64;99472.63;4376454;32;33655;-67
2022/04/20 13:10:41;;;;;;;6.28;5.00;;;;;;;17.69;27.15;99462.31;4376305;32;34757;-67
2022/04/20 13:13:10;;;;;;;6.20;4.68;;;;;;;17.51;28.06;99460.44;4373236;32;101957;-66
2022/04/20 13:15:38;;;;;;;6.22;4.22;;;;;;;17.36;28.04;99448.59;4377033;32;33969;-67